sensor_id;sensor_type;location;lat;lon;timestamp;P1;durP1;ratioP1;P2;durP2;ratioP2
21258;SDS011;10787;53.364;-1.480;2023-12-29T00:01:30;13.33;;;2.90;;
21258;SDS011;10787;53.364;-1.480;2023-12-29T00:04:15;16.30;;;3.20;;
21258;SDS011;10787;53.364;-1.480;2023-12-29T00:06:59;14.40;;;2.73;;
21258;SDS011;10787;53.364;-1.480;2023-12-29T00:09:44;12.40;;;2.70;;
21258;SDS011;10787;53.364;-1.480;2023-12-29T00:12:29;14.97;;;2.67;;
21258;SDS011;10787;53.364;-1.480;2023-12-29T00:15:16;11.50;;;2.50;;
21258;SDS011;10787;53.364;-1.480;2023-12-29T00:18:02;10.40;;;2.57;;
21258;SDS011;10787;53.364;-1.480;2023-12-29T00:20:46;12.03;;;2.60;;
21258;SDS011;10787;53.364;-1.480;2023-12-29T00:23:31;13.73;;;2.80;;
21258;SDS011;10787;53.364;-1.480;2023-12-29T00:26:18;19.07;;;2.73;;
21258;SDS011;10787;53.364;-1.480;2023-12-29T00:29:02;9.47;;;2.37;;
21258;SDS011;10787;53.364;-1.480;2023-12-29T00:31:46;13.07;;;2.30;;
21258;SDS011;10787;53.364;-1.480;2023-12-29T00:34:31;13.17;;;2.70;;
21258;SDS011;10787;53.364;-1.480;2023-12-29T00:37:15;14.23;;;2.63;;
21258;SDS011;10787;53.364;-1.480;2023-12-29T00:39:59;15.13;;;2.40;;
21258;SDS011;10787;53.364;-1.480;2023-12-29T00:42:43;13.63;;;2.47;;
21258;SDS011;10787;53.364;-1.480;2023-12-29T00:45:28;12.33;;;2.40;;
21258;SDS011;10787;53.364;-1.480;2023-12-29T00:48:19;10.73;;;2.03;;
21258;SDS011;10787;53.364;-1.480;2023-12-29T00:51:03;15.07;;;2.50;;
21258;SDS011;10787;53.364;-1.480;2023-12-29T00:53:48;14.70;;;2.00;;
21258;SDS011;10787;53.364;-1.480;2023-12-29T00:56:32;10.50;;;1.90;;
21258;SDS011;10787;53.364;-1.480;2023-12-29T00:59:17;11.23;;;2.73;;
21258;SDS011;10787;53.364;-1.480;2023-12-29T01:02:03;12.20;;;2.40;;
21258;SDS011;10787;53.364;-1.480;2023-12-29T01:04:47;8.40;;;2.23;;
21258;SDS011;10787;53.364;-1.480;2023-12-29T01:07:31;13.10;;;2.30;;
21258;SDS011;10787;53.364;-1.480;2023-12-29T01:10:15;8.40;;;2.50;;
21258;SDS011;10787;53.364;-1.480;2023-12-29T01:13:00;9.10;;;2.07;;
21258;SDS011;10787;53.364;-1.480;2023-12-29T01:15:44;12.57;;;2.50;;
21258;SDS011;10787;53.364;-1.480;2023-12-29T01:18:29;11.60;;;2.33;;
21258;SDS011;10787;53.364;-1.480;2023-12-29T01:21:13;10.10;;;2.10;;
21258;SDS011;10787;53.364;-1.480;2023-12-29T01:23:58;14.70;;;2.33;;
21258;SDS011;10787;53.364;-1.480;2023-12-29T01:26:41;14.67;;;2.37;;
21258;SDS011;10787;53.364;-1.480;2023-12-29T01:29:26;11.37;;;2.00;;
21258;SDS011;10787;53.364;-1.480;2023-12-29T01:32:10;9.67;;;2.00;;
21258;SDS011;10787;53.364;-1.480;2023-12-29T01:34:54;15.37;;;2.10;;
21258;SDS011;10787;53.364;-1.480;2023-12-29T01:37:39;9.80;;;2.13;;
21258;SDS011;10787;53.364;-1.480;2023-12-29T01:40:24;12.43;;;2.50;;
21258;SDS011;10787;53.364;-1.480;2023-12-29T01:43:08;9.77;;;2.10;;
21258;SDS011;10787;53.364;-1.480;2023-12-29T01:45:52;8.70;;;2.00;;
21258;SDS011;10787;53.364;-1.480;2023-12-29T01:48:36;12.17;;;2.37;;
21258;SDS011;10787;53.364;-1.480;2023-12-29T01:51:24;14.80;;;2.53;;
21258;SDS011;10787;53.364;-1.480;2023-12-29T01:54:10;9.60;;;2.10;;
21258;SDS011;10787;53.364;-1.480;2023-12-29T01:56:57;9.77;;;1.80;;
21258;SDS011;10787;53.364;-1.480;2023-12-29T01:59:42;11.20;;;2.73;;
21258;SDS011;10787;53.364;-1.480;2023-12-29T02:02:29;9.87;;;2.33;;
21258;SDS011;10787;53.364;-1.480;2023-12-29T02:05:13;12.37;;;2.10;;
21258;SDS011;10787;53.364;-1.480;2023-12-29T02:08:01;9.77;;;2.23;;
21258;SDS011;10787;53.364;-1.480;2023-12-29T02:10:46;10.10;;;2.20;;
21258;SDS011;10787;53.364;-1.480;2023-12-29T02:13:32;10.63;;;2.23;;
21258;SDS011;10787;53.364;-1.480;2023-12-29T02:16:38;6.70;;;2.17;;
21258;SDS011;10787;53.364;-1.480;2023-12-29T02:19:46;12.77;;;2.03;;
21258;SDS011;10787;53.364;-1.480;2023-12-29T02:22:32;12.03;;;2.13;;
21258;SDS011;10787;53.364;-1.480;2023-12-29T02:25:17;11.80;;;1.80;;
21258;SDS011;10787;53.364;-1.480;2023-12-29T02:28:04;8.63;;;1.73;;
21258;SDS011;10787;53.364;-1.480;2023-12-29T02:31:10;9.77;;;2.27;;
21258;SDS011;10787;53.364;-1.480;2023-12-29T02:34:00;7.93;;;1.80;;
21258;SDS011;10787;53.364;-1.480;2023-12-29T02:36:49;11.47;;;2.00;;
21258;SDS011;10787;53.364;-1.480;2023-12-29T02:39:35;10.70;;;2.23;;
21258;SDS011;10787;53.364;-1.480;2023-12-29T02:42:19;10.27;;;1.90;;
21258;SDS011;10787;53.364;-1.480;2023-12-29T02:45:04;11.60;;;1.90;;
21258;SDS011;10787;53.364;-1.480;2023-12-29T02:47:48;12.43;;;2.30;;
21258;SDS011;10787;53.364;-1.480;2023-12-29T02:50:32;10.60;;;1.80;;
21258;SDS011;10787;53.364;-1.480;2023-12-29T02:53:17;8.73;;;2.03;;
21258;SDS011;10787;53.364;-1.480;2023-12-29T02:56:01;11.70;;;2.17;;
21258;SDS011;10787;53.364;-1.480;2023-12-29T02:58:45;10.40;;;2.53;;
21258;SDS011;10787;53.364;-1.480;2023-12-29T03:01:31;14.83;;;2.60;;
21258;SDS011;10787;53.364;-1.480;2023-12-29T03:04:16;11.47;;;2.30;;
21258;SDS011;10787;53.364;-1.480;2023-12-29T03:07:00;9.97;;;1.93;;
21258;SDS011;10787;53.364;-1.480;2023-12-29T03:09:44;9.80;;;1.70;;
21258;SDS011;10787;53.364;-1.480;2023-12-29T03:12:28;13.03;;;2.33;;
21258;SDS011;10787;53.364;-1.480;2023-12-29T03:15:14;10.67;;;2.23;;
21258;SDS011;10787;53.364;-1.480;2023-12-29T03:17:58;10.60;;;2.00;;
21258;SDS011;10787;53.364;-1.480;2023-12-29T03:20:42;10.30;;;1.87;;
21258;SDS011;10787;53.364;-1.480;2023-12-29T03:23:27;13.03;;;2.00;;
21258;SDS011;10787;53.364;-1.480;2023-12-29T03:26:11;11.20;;;2.23;;
21258;SDS011;10787;53.364;-1.480;2023-12-29T03:28:55;12.57;;;2.10;;
21258;SDS011;10787;53.364;-1.480;2023-12-29T03:31:39;11.13;;;2.00;;
21258;SDS011;10787;53.364;-1.480;2023-12-29T03:34:23;8.73;;;2.17;;
21258;SDS011;10787;53.364;-1.480;2023-12-29T03:37:07;13.13;;;2.50;;
21258;SDS011;10787;53.364;-1.480;2023-12-29T03:39:52;12.77;;;2.53;;
21258;SDS011;10787;53.364;-1.480;2023-12-29T03:42:36;13.37;;;2.47;;
21258;SDS011;10787;53.364;-1.480;2023-12-29T03:45:20;11.20;;;2.20;;
21258;SDS011;10787;53.364;-1.480;2023-12-29T03:48:05;9.63;;;2.10;;
21258;SDS011;10787;53.364;-1.480;2023-12-29T03:50:50;11.37;;;2.13;;
21258;SDS011;10787;53.364;-1.480;2023-12-29T03:53:34;10.60;;;2.40;;
21258;SDS011;10787;53.364;-1.480;2023-12-29T03:56:18;12.57;;;2.90;;
21258;SDS011;10787;53.364;-1.480;2023-12-29T03:59:02;10.77;;;2.20;;
21258;SDS011;10787;53.364;-1.480;2023-12-29T04:01:47;12.70;;;2.30;;
21258;SDS011;10787;53.364;-1.480;2023-12-29T04:04:32;10.43;;;1.90;;
21258;SDS011;10787;53.364;-1.480;2023-12-29T04:07:19;14.77;;;2.60;;
21258;SDS011;10787;53.364;-1.480;2023-12-29T04:10:03;13.43;;;2.33;;
21258;SDS011;10787;53.364;-1.480;2023-12-29T04:12:48;12.87;;;2.20;;
21258;SDS011;10787;53.364;-1.480;2023-12-29T04:15:32;13.20;;;2.43;;
21258;SDS011;10787;53.364;-1.480;2023-12-29T04:18:17;12.80;;;2.33;;
21258;SDS011;10787;53.364;-1.480;2023-12-29T04:21:03;14.93;;;2.20;;
21258;SDS011;10787;53.364;-1.480;2023-12-29T04:23:47;16.77;;;2.80;;
21258;SDS011;10787;53.364;-1.480;2023-12-29T04:26:35;10.63;;;2.47;;
21258;SDS011;10787;53.364;-1.480;2023-12-29T04:29:20;12.50;;;1.93;;
21258;SDS011;10787;53.364;-1.480;2023-12-29T04:32:05;9.93;;;2.00;;
21258;SDS011;10787;53.364;-1.480;2023-12-29T04:34:49;17.73;;;2.60;;
21258;SDS011;10787;53.364;-1.480;2023-12-29T04:37:33;11.83;;;2.40;;
21258;SDS011;10787;53.364;-1.480;2023-12-29T04:40:17;16.67;;;2.70;;
21258;SDS011;10787;53.364;-1.480;2023-12-29T04:43:02;13.33;;;2.57;;
21258;SDS011;10787;53.364;-1.480;2023-12-29T04:45:46;14.57;;;2.33;;
21258;SDS011;10787;53.364;-1.480;2023-12-29T04:48:30;10.97;;;2.20;;
21258;SDS011;10787;53.364;-1.480;2023-12-29T04:51:15;8.50;;;2.20;;
21258;SDS011;10787;53.364;-1.480;2023-12-29T04:53:59;10.17;;;2.50;;
21258;SDS011;10787;53.364;-1.480;2023-12-29T04:56:43;14.00;;;2.30;;
21258;SDS011;10787;53.364;-1.480;2023-12-29T04:59:27;13.17;;;2.23;;
21258;SDS011;10787;53.364;-1.480;2023-12-29T05:02:11;12.37;;;2.73;;
21258;SDS011;10787;53.364;-1.480;2023-12-29T05:04:55;11.33;;;2.43;;
21258;SDS011;10787;53.364;-1.480;2023-12-29T05:07:40;10.63;;;2.10;;
21258;SDS011;10787;53.364;-1.480;2023-12-29T05:10:25;13.70;;;2.33;;
21258;SDS011;10787;53.364;-1.480;2023-12-29T05:13:09;13.93;;;2.50;;
21258;SDS011;10787;53.364;-1.480;2023-12-29T05:15:53;14.93;;;2.43;;
21258;SDS011;10787;53.364;-1.480;2023-12-29T05:18:37;11.73;;;2.30;;
21258;SDS011;10787;53.364;-1.480;2023-12-29T05:21:22;17.43;;;2.43;;
21258;SDS011;10787;53.364;-1.480;2023-12-29T05:24:07;13.50;;;2.20;;
21258;SDS011;10787;53.364;-1.480;2023-12-29T05:26:51;13.83;;;2.80;;
21258;SDS011;10787;53.364;-1.480;2023-12-29T05:29:36;14.07;;;2.30;;
21258;SDS011;10787;53.364;-1.480;2023-12-29T05:32:20;12.00;;;2.00;;
21258;SDS011;10787;53.364;-1.480;2023-12-29T05:35:04;13.93;;;2.17;;
21258;SDS011;10787;53.364;-1.480;2023-12-29T05:37:49;18.33;;;2.43;;
21258;SDS011;10787;53.364;-1.480;2023-12-29T05:40:34;12.77;;;2.57;;
21258;SDS011;10787;53.364;-1.480;2023-12-29T05:43:18;14.63;;;3.10;;
21258;SDS011;10787;53.364;-1.480;2023-12-29T05:46:02;13.23;;;2.10;;
21258;SDS011;10787;53.364;-1.480;2023-12-29T05:48:54;15.00;;;2.60;;
21258;SDS011;10787;53.364;-1.480;2023-12-29T05:51:39;11.50;;;2.50;;
21258;SDS011;10787;53.364;-1.480;2023-12-29T05:54:23;15.13;;;2.70;;
21258;SDS011;10787;53.364;-1.480;2023-12-29T05:57:08;12.57;;;2.57;;
21258;SDS011;10787;53.364;-1.480;2023-12-29T05:59:53;10.57;;;2.13;;
21258;SDS011;10787;53.364;-1.480;2023-12-29T06:02:37;11.60;;;2.07;;
21258;SDS011;10787;53.364;-1.480;2023-12-29T06:05:22;16.77;;;2.67;;
21258;SDS011;10787;53.364;-1.480;2023-12-29T06:08:06;12.00;;;2.80;;
21258;SDS011;10787;53.364;-1.480;2023-12-29T06:10:51;14.23;;;2.47;;
21258;SDS011;10787;53.364;-1.480;2023-12-29T06:13:35;13.00;;;2.20;;
21258;SDS011;10787;53.364;-1.480;2023-12-29T06:16:20;15.00;;;2.57;;
21258;SDS011;10787;53.364;-1.480;2023-12-29T06:19:05;15.10;;;2.50;;
21258;SDS011;10787;53.364;-1.480;2023-12-29T06:21:49;15.13;;;2.60;;
21258;SDS011;10787;53.364;-1.480;2023-12-29T06:24:33;16.53;;;2.67;;
21258;SDS011;10787;53.364;-1.480;2023-12-29T06:27:17;10.73;;;2.70;;
21258;SDS011;10787;53.364;-1.480;2023-12-29T06:30:03;17.93;;;2.40;;
21258;SDS011;10787;53.364;-1.480;2023-12-29T06:32:51;12.47;;;2.30;;
21258;SDS011;10787;53.364;-1.480;2023-12-29T06:35:35;15.30;;;2.70;;
21258;SDS011;10787;53.364;-1.480;2023-12-29T06:38:22;17.23;;;2.80;;
21258;SDS011;10787;53.364;-1.480;2023-12-29T06:41:07;15.77;;;2.33;;
21258;SDS011;10787;53.364;-1.480;2023-12-29T06:43:51;11.47;;;2.47;;
21258;SDS011;10787;53.364;-1.480;2023-12-29T06:46:39;13.60;;;2.33;;
21258;SDS011;10787;53.364;-1.480;2023-12-29T06:49:23;12.47;;;2.33;;
21258;SDS011;10787;53.364;-1.480;2023-12-29T06:52:07;14.13;;;2.53;;
21258;SDS011;10787;53.364;-1.480;2023-12-29T06:54:52;15.83;;;2.63;;
21258;SDS011;10787;53.364;-1.480;2023-12-29T06:57:36;14.73;;;2.60;;
21258;SDS011;10787;53.364;-1.480;2023-12-29T07:00:21;16.70;;;2.87;;
21258;SDS011;10787;53.364;-1.480;2023-12-29T07:03:06;13.70;;;2.53;;
21258;SDS011;10787;53.364;-1.480;2023-12-29T07:05:50;13.10;;;2.37;;
21258;SDS011;10787;53.364;-1.480;2023-12-29T07:08:34;14.60;;;2.60;;
21258;SDS011;10787;53.364;-1.480;2023-12-29T07:11:18;20.57;;;2.90;;
21258;SDS011;10787;53.364;-1.480;2023-12-29T07:14:03;11.93;;;2.80;;
21258;SDS011;10787;53.364;-1.480;2023-12-29T07:16:47;13.13;;;2.30;;
21258;SDS011;10787;53.364;-1.480;2023-12-29T07:19:31;15.90;;;2.67;;
21258;SDS011;10787;53.364;-1.480;2023-12-29T07:22:20;16.27;;;2.17;;
21258;SDS011;10787;53.364;-1.480;2023-12-29T07:25:05;11.43;;;2.50;;
21258;SDS011;10787;53.364;-1.480;2023-12-29T07:27:49;16.03;;;2.77;;
21258;SDS011;10787;53.364;-1.480;2023-12-29T07:30:34;12.40;;;2.43;;
21258;SDS011;10787;53.364;-1.480;2023-12-29T07:33:18;17.37;;;2.77;;
21258;SDS011;10787;53.364;-1.480;2023-12-29T07:36:02;14.00;;;2.80;;
21258;SDS011;10787;53.364;-1.480;2023-12-29T07:38:47;15.07;;;2.47;;
21258;SDS011;10787;53.364;-1.480;2023-12-29T07:41:31;15.57;;;2.50;;
21258;SDS011;10787;53.364;-1.480;2023-12-29T07:44:16;13.30;;;2.70;;
21258;SDS011;10787;53.364;-1.480;2023-12-29T07:47:01;12.80;;;2.60;;
21258;SDS011;10787;53.364;-1.480;2023-12-29T07:49:46;13.03;;;2.83;;
21258;SDS011;10787;53.364;-1.480;2023-12-29T07:52:30;20.07;;;2.77;;
21258;SDS011;10787;53.364;-1.480;2023-12-29T07:55:14;17.40;;;2.50;;
21258;SDS011;10787;53.364;-1.480;2023-12-29T07:57:59;17.40;;;2.50;;
21258;SDS011;10787;53.364;-1.480;2023-12-29T08:00:44;17.20;;;2.77;;
21258;SDS011;10787;53.364;-1.480;2023-12-29T08:03:28;13.60;;;2.67;;
21258;SDS011;10787;53.364;-1.480;2023-12-29T08:06:12;16.80;;;3.03;;
21258;SDS011;10787;53.364;-1.480;2023-12-29T08:08:57;12.87;;;2.30;;
21258;SDS011;10787;53.364;-1.480;2023-12-29T08:11:41;12.73;;;2.33;;
21258;SDS011;10787;53.364;-1.480;2023-12-29T08:14:26;15.50;;;3.00;;
21258;SDS011;10787;53.364;-1.480;2023-12-29T08:17:11;12.23;;;2.57;;
21258;SDS011;10787;53.364;-1.480;2023-12-29T08:19:56;11.03;;;2.37;;
21258;SDS011;10787;53.364;-1.480;2023-12-29T08:22:41;12.33;;;2.40;;
21258;SDS011;10787;53.364;-1.480;2023-12-29T08:25:26;13.50;;;2.40;;
21258;SDS011;10787;53.364;-1.480;2023-12-29T08:28:10;11.90;;;2.40;;
21258;SDS011;10787;53.364;-1.480;2023-12-29T08:30:54;11.93;;;2.20;;
21258;SDS011;10787;53.364;-1.480;2023-12-29T08:33:39;12.50;;;2.33;;
21258;SDS011;10787;53.364;-1.480;2023-12-29T08:36:23;12.23;;;2.70;;
21258;SDS011;10787;53.364;-1.480;2023-12-29T08:39:07;14.10;;;2.70;;
21258;SDS011;10787;53.364;-1.480;2023-12-29T08:41:52;17.07;;;2.57;;
21258;SDS011;10787;53.364;-1.480;2023-12-29T08:44:37;12.83;;;2.20;;
21258;SDS011;10787;53.364;-1.480;2023-12-29T08:47:21;14.80;;;2.87;;
21258;SDS011;10787;53.364;-1.480;2023-12-29T08:50:05;16.40;;;2.70;;
21258;SDS011;10787;53.364;-1.480;2023-12-29T08:52:49;11.90;;;2.50;;
21258;SDS011;10787;53.364;-1.480;2023-12-29T08:55:33;17.60;;;2.57;;
21258;SDS011;10787;53.364;-1.480;2023-12-29T08:58:17;15.50;;;2.60;;
21258;SDS011;10787;53.364;-1.480;2023-12-29T09:01:01;13.97;;;2.87;;
21258;SDS011;10787;53.364;-1.480;2023-12-29T09:03:46;18.70;;;3.20;;
21258;SDS011;10787;53.364;-1.480;2023-12-29T09:06:30;16.30;;;3.23;;
21258;SDS011;10787;53.364;-1.480;2023-12-29T09:09:15;12.40;;;2.27;;
21258;SDS011;10787;53.364;-1.480;2023-12-29T09:11:59;11.63;;;2.07;;
21258;SDS011;10787;53.364;-1.480;2023-12-29T09:14:44;12.03;;;2.50;;
21258;SDS011;10787;53.364;-1.480;2023-12-29T09:17:28;12.90;;;2.43;;
21258;SDS011;10787;53.364;-1.480;2023-12-29T09:20:13;10.53;;;2.33;;
21258;SDS011;10787;53.364;-1.480;2023-12-29T09:22:58;10.90;;;2.23;;
21258;SDS011;10787;53.364;-1.480;2023-12-29T09:25:43;13.77;;;3.00;;
21258;SDS011;10787;53.364;-1.480;2023-12-29T09:28:27;13.77;;;1.90;;
21258;SDS011;10787;53.364;-1.480;2023-12-29T09:31:21;15.60;;;2.70;;
21258;SDS011;10787;53.364;-1.480;2023-12-29T09:34:06;12.83;;;2.43;;
21258;SDS011;10787;53.364;-1.480;2023-12-29T09:36:50;12.57;;;2.37;;
21258;SDS011;10787;53.364;-1.480;2023-12-29T09:39:34;16.10;;;2.37;;
21258;SDS011;10787;53.364;-1.480;2023-12-29T09:42:22;11.13;;;2.30;;
21258;SDS011;10787;53.364;-1.480;2023-12-29T09:45:07;13.07;;;2.47;;
21258;SDS011;10787;53.364;-1.480;2023-12-29T09:47:55;13.20;;;2.70;;
21258;SDS011;10787;53.364;-1.480;2023-12-29T09:50:41;13.57;;;2.30;;
21258;SDS011;10787;53.364;-1.480;2023-12-29T09:53:27;14.17;;;2.50;;
21258;SDS011;10787;53.364;-1.480;2023-12-29T09:56:13;12.93;;;2.40;;
21258;SDS011;10787;53.364;-1.480;2023-12-29T09:58:58;11.70;;;2.67;;
21258;SDS011;10787;53.364;-1.480;2023-12-29T10:01:44;13.87;;;2.73;;
21258;SDS011;10787;53.364;-1.480;2023-12-29T10:04:29;10.97;;;2.10;;
21258;SDS011;10787;53.364;-1.480;2023-12-29T10:07:24;14.00;;;2.37;;
21258;SDS011;10787;53.364;-1.480;2023-12-29T10:10:15;10.43;;;2.17;;
21258;SDS011;10787;53.364;-1.480;2023-12-29T10:13:00;14.87;;;2.43;;
21258;SDS011;10787;53.364;-1.480;2023-12-29T10:18:42;14.63;;;2.33;;
21258;SDS011;10787;53.364;-1.480;2023-12-29T10:21:40;17.77;;;2.53;;
21258;SDS011;10787;53.364;-1.480;2023-12-29T10:24:32;15.10;;;2.40;;
21258;SDS011;10787;53.364;-1.480;2023-12-29T10:27:17;10.17;;;2.47;;
21258;SDS011;10787;53.364;-1.480;2023-12-29T10:30:02;11.73;;;1.93;;
21258;SDS011;10787;53.364;-1.480;2023-12-29T10:32:50;11.63;;;2.40;;
21258;SDS011;10787;53.364;-1.480;2023-12-29T10:35:36;9.13;;;1.80;;
21258;SDS011;10787;53.364;-1.480;2023-12-29T10:38:23;12.60;;;2.17;;
21258;SDS011;10787;53.364;-1.480;2023-12-29T10:44:06;14.00;;;2.10;;
21258;SDS011;10787;53.364;-1.480;2023-12-29T10:46:51;11.47;;;2.50;;
21258;SDS011;10787;53.364;-1.480;2023-12-29T10:49:35;10.73;;;2.27;;
21258;SDS011;10787;53.364;-1.480;2023-12-29T10:52:20;13.50;;;2.40;;
21258;SDS011;10787;53.364;-1.480;2023-12-29T10:55:08;13.90;;;2.10;;
21258;SDS011;10787;53.364;-1.480;2023-12-29T10:57:59;14.30;;;2.57;;
21258;SDS011;10787;53.364;-1.480;2023-12-29T11:00:44;11.37;;;2.73;;
21258;SDS011;10787;53.364;-1.480;2023-12-29T11:03:28;12.23;;;2.37;;
21258;SDS011;10787;53.364;-1.480;2023-12-29T11:06:16;13.23;;;2.50;;
21258;SDS011;10787;53.364;-1.480;2023-12-29T11:09:00;11.47;;;2.60;;
21258;SDS011;10787;53.364;-1.480;2023-12-29T11:11:44;11.80;;;2.20;;
21258;SDS011;10787;53.364;-1.480;2023-12-29T11:14:30;13.53;;;2.23;;
21258;SDS011;10787;53.364;-1.480;2023-12-29T11:17:16;9.60;;;2.07;;
21258;SDS011;10787;53.364;-1.480;2023-12-29T11:20:01;9.53;;;2.03;;
21258;SDS011;10787;53.364;-1.480;2023-12-29T11:22:48;10.60;;;2.30;;
21258;SDS011;10787;53.364;-1.480;2023-12-29T11:25:32;14.27;;;2.57;;
21258;SDS011;10787;53.364;-1.480;2023-12-29T11:28:17;13.17;;;2.30;;
21258;SDS011;10787;53.364;-1.480;2023-12-29T11:31:03;12.80;;;2.57;;
21258;SDS011;10787;53.364;-1.480;2023-12-29T11:33:52;10.87;;;2.43;;
21258;SDS011;10787;53.364;-1.480;2023-12-29T11:36:45;13.57;;;2.57;;
21258;SDS011;10787;53.364;-1.480;2023-12-29T11:39:40;17.23;;;2.33;;
21258;SDS011;10787;53.364;-1.480;2023-12-29T11:42:38;8.93;;;2.10;;
21258;SDS011;10787;53.364;-1.480;2023-12-29T11:48:12;9.47;;;1.80;;
21258;SDS011;10787;53.364;-1.480;2023-12-29T11:54:35;10.50;;;2.00;;
21258;SDS011;10787;53.364;-1.480;2023-12-29T11:57:30;8.73;;;2.50;;
21258;SDS011;10787;53.364;-1.480;2023-12-29T12:00:15;13.47;;;2.23;;
21258;SDS011;10787;53.364;-1.480;2023-12-29T12:03:00;12.40;;;2.20;;
21258;SDS011;10787;53.364;-1.480;2023-12-29T12:05:45;7.97;;;1.60;;
21258;SDS011;10787;53.364;-1.480;2023-12-29T12:08:31;12.50;;;2.10;;
21258;SDS011;10787;53.364;-1.480;2023-12-29T12:17:32;11.00;;;2.20;;
21258;SDS011;10787;53.364;-1.480;2023-12-29T12:20:18;11.47;;;2.30;;
21258;SDS011;10787;53.364;-1.480;2023-12-29T12:23:04;13.30;;;2.30;;
21258;SDS011;10787;53.364;-1.480;2023-12-29T12:25:56;11.83;;;2.37;;
21258;SDS011;10787;53.364;-1.480;2023-12-29T12:28:43;9.10;;;2.10;;
21258;SDS011;10787;53.364;-1.480;2023-12-29T12:31:29;14.30;;;2.77;;
21258;SDS011;10787;53.364;-1.480;2023-12-29T12:34:13;10.27;;;1.93;;
21258;SDS011;10787;53.364;-1.480;2023-12-29T12:36:57;7.10;;;1.93;;
21258;SDS011;10787;53.364;-1.480;2023-12-29T12:39:43;11.80;;;1.87;;
21258;SDS011;10787;53.364;-1.480;2023-12-29T12:42:27;10.50;;;2.10;;
21258;SDS011;10787;53.364;-1.480;2023-12-29T12:45:12;8.63;;;2.10;;
21258;SDS011;10787;53.364;-1.480;2023-12-29T12:48:02;11.10;;;1.90;;
21258;SDS011;10787;53.364;-1.480;2023-12-29T12:50:55;10.57;;;1.83;;
21258;SDS011;10787;53.364;-1.480;2023-12-29T12:53:42;13.50;;;2.33;;
21258;SDS011;10787;53.364;-1.480;2023-12-29T12:56:27;11.93;;;2.33;;
21258;SDS011;10787;53.364;-1.480;2023-12-29T12:59:12;8.60;;;1.83;;
21258;SDS011;10787;53.364;-1.480;2023-12-29T13:01:57;9.23;;;2.10;;
21258;SDS011;10787;53.364;-1.480;2023-12-29T13:04:42;8.43;;;1.77;;
21258;SDS011;10787;53.364;-1.480;2023-12-29T13:07:26;11.77;;;1.80;;
21258;SDS011;10787;53.364;-1.480;2023-12-29T13:10:12;9.73;;;1.97;;
21258;SDS011;10787;53.364;-1.480;2023-12-29T13:12:56;10.00;;;1.93;;
21258;SDS011;10787;53.364;-1.480;2023-12-29T13:15:45;6.80;;;1.83;;
21258;SDS011;10787;53.364;-1.480;2023-12-29T13:18:34;9.53;;;2.17;;
21258;SDS011;10787;53.364;-1.480;2023-12-29T13:21:18;11.23;;;2.47;;
21258;SDS011;10787;53.364;-1.480;2023-12-29T13:24:03;11.40;;;2.70;;
21258;SDS011;10787;53.364;-1.480;2023-12-29T13:26:50;8.37;;;2.10;;
21258;SDS011;10787;53.364;-1.480;2023-12-29T13:29:38;11.00;;;2.30;;
21258;SDS011;10787;53.364;-1.480;2023-12-29T13:32:23;11.30;;;2.70;;
21258;SDS011;10787;53.364;-1.480;2023-12-29T13:35:35;15.10;;;2.63;;
21258;SDS011;10787;53.364;-1.480;2023-12-29T13:38:25;8.90;;;2.43;;
21258;SDS011;10787;53.364;-1.480;2023-12-29T13:41:12;12.80;;;2.07;;
21258;SDS011;10787;53.364;-1.480;2023-12-29T13:43:58;11.27;;;2.20;;
21258;SDS011;10787;53.364;-1.480;2023-12-29T13:46:44;9.70;;;2.10;;
21258;SDS011;10787;53.364;-1.480;2023-12-29T13:49:28;7.37;;;2.00;;
21258;SDS011;10787;53.364;-1.480;2023-12-29T13:52:18;12.17;;;2.27;;
21258;SDS011;10787;53.364;-1.480;2023-12-29T13:55:04;7.50;;;2.13;;
21258;SDS011;10787;53.364;-1.480;2023-12-29T13:57:52;10.07;;;2.43;;
21258;SDS011;10787;53.364;-1.480;2023-12-29T14:00:38;10.03;;;2.37;;
21258;SDS011;10787;53.364;-1.480;2023-12-29T14:03:27;12.50;;;2.77;;
21258;SDS011;10787;53.364;-1.480;2023-12-29T14:06:22;13.93;;;2.60;;
21258;SDS011;10787;53.364;-1.480;2023-12-29T14:09:15;10.37;;;2.00;;
21258;SDS011;10787;53.364;-1.480;2023-12-29T14:12:01;12.27;;;2.10;;
21258;SDS011;10787;53.364;-1.480;2023-12-29T14:14:45;9.03;;;2.20;;
21258;SDS011;10787;53.364;-1.480;2023-12-29T14:17:29;9.53;;;2.30;;
21258;SDS011;10787;53.364;-1.480;2023-12-29T14:20:32;10.17;;;2.10;;
21258;SDS011;10787;53.364;-1.480;2023-12-29T14:23:18;8.80;;;2.20;;
21258;SDS011;10787;53.364;-1.480;2023-12-29T14:26:03;12.13;;;2.40;;
21258;SDS011;10787;53.364;-1.480;2023-12-29T14:28:59;10.87;;;2.50;;
21258;SDS011;10787;53.364;-1.480;2023-12-29T14:31:44;10.13;;;2.83;;
21258;SDS011;10787;53.364;-1.480;2023-12-29T14:34:29;12.93;;;2.60;;
21258;SDS011;10787;53.364;-1.480;2023-12-29T14:37:13;15.10;;;3.20;;
21258;SDS011;10787;53.364;-1.480;2023-12-29T14:39:57;12.90;;;2.63;;
21258;SDS011;10787;53.364;-1.480;2023-12-29T14:42:41;10.23;;;2.33;;
21258;SDS011;10787;53.364;-1.480;2023-12-29T14:45:25;12.70;;;2.57;;
21258;SDS011;10787;53.364;-1.480;2023-12-29T14:48:13;8.50;;;1.67;;
21258;SDS011;10787;53.364;-1.480;2023-12-29T14:50:58;8.07;;;1.27;;
21258;SDS011;10787;53.364;-1.480;2023-12-29T14:53:43;4.47;;;1.20;;
21258;SDS011;10787;53.364;-1.480;2023-12-29T14:56:29;7.03;;;1.40;;
21258;SDS011;10787;53.364;-1.480;2023-12-29T14:59:13;10.93;;;2.13;;
21258;SDS011;10787;53.364;-1.480;2023-12-29T15:01:57;8.60;;;1.90;;
21258;SDS011;10787;53.364;-1.480;2023-12-29T15:04:42;11.17;;;2.40;;
21258;SDS011;10787;53.364;-1.480;2023-12-29T15:07:26;6.13;;;1.90;;
21258;SDS011;10787;53.364;-1.480;2023-12-29T15:10:14;8.00;;;2.50;;
21258;SDS011;10787;53.364;-1.480;2023-12-29T15:12:58;8.60;;;2.40;;
21258;SDS011;10787;53.364;-1.480;2023-12-29T15:15:43;9.67;;;2.60;;
21258;SDS011;10787;53.364;-1.480;2023-12-29T15:18:27;5.43;;;1.67;;
21258;SDS011;10787;53.364;-1.480;2023-12-29T15:21:13;3.97;;;1.47;;
21258;SDS011;10787;53.364;-1.480;2023-12-29T15:23:58;4.07;;;1.33;;
21258;SDS011;10787;53.364;-1.480;2023-12-29T15:26:43;3.67;;;1.20;;
21258;SDS011;10787;53.364;-1.480;2023-12-29T15:29:27;3.63;;;0.90;;
21258;SDS011;10787;53.364;-1.480;2023-12-29T15:32:15;2.73;;;0.80;;
21258;SDS011;10787;53.364;-1.480;2023-12-29T15:35:00;3.37;;;1.07;;
21258;SDS011;10787;53.364;-1.480;2023-12-29T15:37:45;1.80;;;1.10;;
21258;SDS011;10787;53.364;-1.480;2023-12-29T15:40:29;4.13;;;2.57;;
21258;SDS011;10787;53.364;-1.480;2023-12-29T15:43:15;4.47;;;2.27;;
21258;SDS011;10787;53.364;-1.480;2023-12-29T15:45:59;3.37;;;1.90;;
21258;SDS011;10787;53.364;-1.480;2023-12-29T15:48:44;3.43;;;2.00;;
21258;SDS011;10787;53.364;-1.480;2023-12-29T15:51:29;5.73;;;2.80;;
21258;SDS011;10787;53.364;-1.480;2023-12-29T15:54:14;5.80;;;3.07;;
21258;SDS011;10787;53.364;-1.480;2023-12-29T15:56:58;4.67;;;2.77;;
21258;SDS011;10787;53.364;-1.480;2023-12-29T15:59:43;5.23;;;3.23;;
21258;SDS011;10787;53.364;-1.480;2023-12-29T16:02:28;5.77;;;3.20;;
21258;SDS011;10787;53.364;-1.480;2023-12-29T16:05:22;6.57;;;3.97;;
21258;SDS011;10787;53.364;-1.480;2023-12-29T16:08:16;9.23;;;4.57;;
21258;SDS011;10787;53.364;-1.480;2023-12-29T16:11:00;7.17;;;3.73;;
21258;SDS011;10787;53.364;-1.480;2023-12-29T16:13:45;6.03;;;3.67;;
21258;SDS011;10787;53.364;-1.480;2023-12-29T16:16:32;6.13;;;3.77;;
21258;SDS011;10787;53.364;-1.480;2023-12-29T16:19:18;8.97;;;3.80;;
21258;SDS011;10787;53.364;-1.480;2023-12-29T16:22:03;4.60;;;2.63;;
21258;SDS011;10787;53.364;-1.480;2023-12-29T16:24:47;3.93;;;2.07;;
21258;SDS011;10787;53.364;-1.480;2023-12-29T16:27:35;7.93;;;5.00;;
21258;SDS011;10787;53.364;-1.480;2023-12-29T16:30:20;9.33;;;4.50;;